createdAt,value
2022-12-11T00:01:27.144Z,100.00
2022-12-11T00:03:53.828Z,100.00
2022-12-11T00:06:23.177Z,100.00
2022-12-11T00:08:54.762Z,100.00
2022-12-11T00:11:22.590Z,100.00
2022-12-11T00:13:49.109Z,100.00
2022-12-11T00:16:16.028Z,100.00
2022-12-11T00:18:42.596Z,100.00
2022-12-11T00:21:13.149Z,100.00
2022-12-11T00:23:40.359Z,100.00
2022-12-11T00:26:14.184Z,100.00
2022-12-11T00:28:41.820Z,100.00
2022-12-11T00:31:12.775Z,100.00
2022-12-11T00:33:39.249Z,100.00
2022-12-11T00:36:12.773Z,100.00
2022-12-11T00:38:39.735Z,100.00
2022-12-11T00:41:06.358Z,100.00
2022-12-11T00:43:32.787Z,100.00
2022-12-11T00:45:59.296Z,100.00
2022-12-11T00:48:25.727Z,100.00
2022-12-11T00:50:52.183Z,100.00
2022-12-11T00:53:18.636Z,100.00
2022-12-11T00:55:45.096Z,100.00
2022-12-11T00:58:12.213Z,100.00
2022-12-11T01:00:39.759Z,100.00
2022-12-11T01:03:06.817Z,100.00
2022-12-11T01:05:34.168Z,100.00
2022-12-11T01:08:00.882Z,100.00
2022-12-11T01:10:27.554Z,100.00
2022-12-11T01:13:05.196Z,100.00
2022-12-11T01:15:41.511Z,100.00
2022-12-11T01:18:09.557Z,100.00
2022-12-11T01:20:39.892Z,100.00
2022-12-11T01:23:06.976Z,100.00
2022-12-11T01:25:38.167Z,100.00
2022-12-11T01:28:05.934Z,100.00
2022-12-11T01:30:36.579Z,100.00
2022-12-11T01:33:03.565Z,100.00
2022-12-11T01:35:29.988Z,100.00
2022-12-11T01:37:56.821Z,100.00
2022-12-11T01:40:23.718Z,100.00
2022-12-11T01:42:50.591Z,100.00
2022-12-11T01:45:29.209Z,100.00
2022-12-11T01:48:02.246Z,100.00
2022-12-11T01:50:32.455Z,100.00
2022-12-11T01:52:59.101Z,100.00
2022-12-11T01:55:25.705Z,100.00
2022-12-11T01:57:53.082Z,100.00
2022-12-11T02:00:20.559Z,100.00
2022-12-11T02:02:47.089Z,100.00
2022-12-11T02:05:13.741Z,100.00
2022-12-11T02:07:46.535Z,100.00
2022-12-11T02:10:13.676Z,100.00
2022-12-11T02:13:07.788Z,100.00
2022-12-11T02:15:47.091Z,100.00
2022-12-11T02:18:42.175Z,100.00
2022-12-11T02:21:24.345Z,100.00
2022-12-11T02:24:26.102Z,100.00
2022-12-11T02:27:11.567Z,100.00
2022-12-11T02:29:45.955Z,100.00
2022-12-11T02:32:23.892Z,100.00
2022-12-11T02:34:57.854Z,100.00
2022-12-11T02:37:29.481Z,100.00
2022-12-11T02:39:57.074Z,100.00
2022-12-11T02:42:28.270Z,100.00
2022-12-11T02:44:57.042Z,100.00
2022-12-11T02:47:28.325Z,100.00
2022-12-11T02:49:55.795Z,100.00
2022-12-11T02:52:25.458Z,100.00
2022-12-11T02:54:58.049Z,100.00
2022-12-11T02:57:33.308Z,100.00
2022-12-11T02:59:59.820Z,100.00
2022-12-11T03:02:26.690Z,100.00
2022-12-11T03:04:53.932Z,100.00
2022-12-11T03:07:27.306Z,100.00
2022-12-11T03:09:54.426Z,100.00
2022-12-11T03:12:27.546Z,100.00
2022-12-11T03:14:54.322Z,100.00
2022-12-11T03:17:30.704Z,100.00
2022-12-11T03:20:09.599Z,100.00
2022-12-11T03:22:58.439Z,100.00
2022-12-11T03:25:38.188Z,100.00
2022-12-11T03:28:12.875Z,100.00
2022-12-11T03:30:41.398Z,100.00
2022-12-11T03:33:25.683Z,100.00
2022-12-11T03:35:56.652Z,100.00
2022-12-11T03:38:34.289Z,100.00
2022-12-11T03:41:03.417Z,100.00
2022-12-11T03:43:32.031Z,100.00
2022-12-11T03:45:59.852Z,100.00
2022-12-11T03:48:31.446Z,100.00
2022-12-11T03:50:59.221Z,100.00
2022-12-11T03:53:27.262Z,100.00
2022-12-11T03:55:56.147Z,100.00
2022-12-11T03:58:22.642Z,100.00
2022-12-11T04:00:49.112Z,100.00
2022-12-11T04:03:16.080Z,100.00
2022-12-11T04:05:48.175Z,100.00
2022-12-11T04:08:15.379Z,100.00
2022-12-11T04:10:43.426Z,100.00
2022-12-11T04:13:10.495Z,100.00
2022-12-11T04:15:38.441Z,100.00
2022-12-11T04:18:24.595Z,100.00
2022-12-11T04:21:12.440Z,100.00
2022-12-11T04:23:57.120Z,100.00
2022-12-11T04:26:23.573Z,100.00
2022-12-11T04:28:51.111Z,100.00
2022-12-11T04:31:20.028Z,100.00
2022-12-11T04:33:47.224Z,100.00
2022-12-11T04:36:14.287Z,100.00
2022-12-11T04:38:41.160Z,100.00
2022-12-11T04:41:13.628Z,100.00
2022-12-11T04:43:40.782Z,100.00
2022-12-11T04:46:13.451Z,100.00
2022-12-11T04:48:40.438Z,100.00
2022-12-11T04:51:07.251Z,100.00
2022-12-11T04:53:34.456Z,100.00
2022-12-11T04:56:01.131Z,100.00
2022-12-11T04:58:28.336Z,100.00
2022-12-11T05:00:54.733Z,100.00
2022-12-11T05:03:21.291Z,100.00
2022-12-11T05:05:52.649Z,100.00
2022-12-11T05:08:20.999Z,100.00
2022-12-11T05:11:06.024Z,100.00
2022-12-11T05:13:32.761Z,100.00
2022-12-11T05:15:59.553Z,100.00
2022-12-11T05:18:26.283Z,100.00
2022-12-11T05:21:00.974Z,100.00
2022-12-11T05:23:28.440Z,100.00
2022-12-11T05:26:01.737Z,100.00
2022-12-11T05:28:30.339Z,100.00
2022-12-11T05:30:58.609Z,100.00
2022-12-11T05:33:25.879Z,100.00
2022-12-11T05:35:52.405Z,100.00
2022-12-11T05:38:19.323Z,100.00
2022-12-11T05:40:45.765Z,100.00
2022-12-11T05:43:12.247Z,100.00
2022-12-11T05:45:38.873Z,100.00
2022-12-11T05:48:05.728Z,100.00
2022-12-11T05:50:32.957Z,100.00
2022-12-11T05:52:59.452Z,100.00
2022-12-11T05:55:25.922Z,100.00
2022-12-11T05:57:52.506Z,100.00
2022-12-11T06:00:21.822Z,100.00
2022-12-11T06:02:48.421Z,100.00
2022-12-11T06:05:15.076Z,100.00
2022-12-11T06:07:42.733Z,100.00
2022-12-11T06:10:09.720Z,100.00
2022-12-11T06:12:36.230Z,100.00
2022-12-11T06:15:03.126Z,100.00
2022-12-11T06:17:29.785Z,99.84
2022-12-11T06:19:56.241Z,100.00
2022-12-11T06:22:22.676Z,100.00
2022-12-11T06:24:49.092Z,99.98
2022-12-11T06:27:15.740Z,99.72
2022-12-11T06:29:44.204Z,99.76
2022-12-11T06:32:10.606Z,99.97
2022-12-11T06:34:37.052Z,100.00
2022-12-11T06:37:03.732Z,99.92
2022-12-11T06:39:30.155Z,99.79
2022-12-11T06:41:56.632Z,99.97
2022-12-11T06:44:23.070Z,99.94
2022-12-11T06:46:49.528Z,99.71
2022-12-11T06:49:16.210Z,100.00
2022-12-11T06:51:42.641Z,99.78
2022-12-11T06:54:09.036Z,99.96
2022-12-11T06:56:36.305Z,99.47
2022-12-11T06:59:07.104Z,99.83
2022-12-11T07:01:34.051Z,99.48
2022-12-11T07:04:06.320Z,99.55
2022-12-11T07:06:32.819Z,99.25
2022-12-11T07:08:59.428Z,99.24
2022-12-11T07:11:25.912Z,99.10
2022-12-11T07:13:52.398Z,99.15
2022-12-11T07:16:19.257Z,99.05
2022-12-11T07:18:51.396Z,99.03
2022-12-11T07:21:19.624Z,99.05
2022-12-11T07:23:46.924Z,98.97
2022-12-11T07:26:16.907Z,98.80
2022-12-11T07:28:44.308Z,98.76
2022-12-11T07:31:19.798Z,98.75
2022-12-11T07:33:47.299Z,98.72
2022-12-11T07:36:15.026Z,98.82
2022-12-11T07:38:42.067Z,98.59
2022-12-11T07:41:11.864Z,98.66
2022-12-11T07:43:38.915Z,98.61
2022-12-11T07:46:15.418Z,98.65
2022-12-11T07:48:44.084Z,98.51
2022-12-11T07:51:16.549Z,98.33
2022-12-11T07:53:47.964Z,98.39
2022-12-11T07:56:15.721Z,98.21
2022-12-11T07:58:44.770Z,98.12
2022-12-11T08:01:13.540Z,97.99
2022-12-11T08:03:40.084Z,97.66
2022-12-11T08:06:06.781Z,97.75
2022-12-11T08:08:33.355Z,97.99
2022-12-11T08:11:08.137Z,97.77
2022-12-11T08:13:35.275Z,97.90
2022-12-11T08:16:06.176Z,97.65
2022-12-11T08:18:34.228Z,97.50
2022-12-11T08:21:05.860Z,97.42
2022-12-11T08:23:32.428Z,97.01
2022-12-11T08:25:58.901Z,97.19
2022-12-11T08:28:27.298Z,97.04
2022-12-11T08:30:54.070Z,97.00
2022-12-11T08:33:25.265Z,97.14
2022-12-11T08:35:51.865Z,97.02
2022-12-11T08:38:23.672Z,97.12
2022-12-11T08:40:51.778Z,96.91
2022-12-11T08:43:18.338Z,96.93
2022-12-11T08:45:46.784Z,97.06
2022-12-11T08:48:14.515Z,97.04
2022-12-11T08:50:41.002Z,96.82
2022-12-11T08:53:07.640Z,96.98
2022-12-11T08:55:34.073Z,97.03
2022-12-11T08:58:00.573Z,97.18
2022-12-11T09:00:29.607Z,97.07
2022-12-11T09:02:56.068Z,97.04
2022-12-11T09:05:22.838Z,96.66
2022-12-11T09:07:49.433Z,96.99
2022-12-11T09:10:15.954Z,96.69
2022-12-11T09:12:42.758Z,96.64
2022-12-11T09:15:09.865Z,96.40
2022-12-11T09:17:36.810Z,97.12
2022-12-11T09:20:04.115Z,96.71
2022-12-11T09:22:33.532Z,96.35
2022-12-11T09:25:00.036Z,96.30
2022-12-11T09:27:26.676Z,96.27
2022-12-11T09:29:53.083Z,96.23
2022-12-11T09:32:19.561Z,96.11
2022-12-11T09:34:46.122Z,96.26
2022-12-11T09:37:12.840Z,96.07
2022-12-11T09:39:39.404Z,96.06
2022-12-11T09:42:18.841Z,96.39
2022-12-11T09:44:50.960Z,96.23
2022-12-11T09:47:28.943Z,95.66
2022-12-11T09:50:06.432Z,96.07
2022-12-11T09:52:37.875Z,95.86
2022-12-11T09:55:15.009Z,95.68
2022-12-11T09:58:09.297Z,95.66
2022-12-11T10:00:48.112Z,95.68
2022-12-11T10:03:42.937Z,95.83
2022-12-11T10:06:17.251Z,95.81
2022-12-11T10:08:55.574Z,95.53
2022-12-11T10:11:31.138Z,95.41
2022-12-11T10:14:31.334Z,95.31
2022-12-11T10:17:02.865Z,95.33
2022-12-11T10:19:32.005Z,95.16
2022-12-11T10:22:01.151Z,95.11
2022-12-11T10:27:32.265Z,94.96
2022-12-11T10:30:12.653Z,94.82
2022-12-11T10:32:59.340Z,94.57
2022-12-11T10:36:10.036Z,94.62
2022-12-11T10:38:43.909Z,94.48
2022-12-11T10:41:13.820Z,94.29
2022-12-11T10:43:43.392Z,94.50
2022-12-11T10:46:22.284Z,94.79
2022-12-11T10:48:57.489Z,94.47
2022-12-11T10:51:41.947Z,94.40
2022-12-11T10:54:38.590Z,94.62
2022-12-11T10:57:08.356Z,94.77
2022-12-11T10:59:47.976Z,94.34
2022-12-11T11:02:31.125Z,94.47
2022-12-11T11:05:00.229Z,94.46
2022-12-11T11:07:29.919Z,94.29
2022-12-11T11:10:15.460Z,94.41
2022-12-11T11:12:48.082Z,94.65
2022-12-11T11:15:32.935Z,94.29
2022-12-11T11:18:12.758Z,94.44
2022-12-11T11:20:47.422Z,94.41
2022-12-11T11:23:15.937Z,94.18
2022-12-11T11:25:52.008Z,94.59
2022-12-11T11:28:22.629Z,94.17
2022-12-11T11:30:59.729Z,94.46
2022-12-11T11:33:29.501Z,94.69
2022-12-11T11:35:59.211Z,94.61
2022-12-11T11:38:31.627Z,94.42
2022-12-11T11:41:15.305Z,94.52
2022-12-11T11:44:02.488Z,94.67
2022-12-11T11:46:55.376Z,94.59
2022-12-11T11:49:31.490Z,94.46
2022-12-11T11:52:11.113Z,94.48
2022-12-11T11:54:57.843Z,94.46
2022-12-11T11:57:35.613Z,94.44
2022-12-11T12:00:16.610Z,94.34
2022-12-11T12:02:43.589Z,94.13
2022-12-11T12:05:13.859Z,94.10
2022-12-11T12:07:47.878Z,94.10
2022-12-11T12:10:20.496Z,94.03
2022-12-11T12:13:14.350Z,94.12
2022-12-11T12:15:58.476Z,93.75
2022-12-11T12:18:35.408Z,93.61
2022-12-11T12:21:18.873Z,93.80
2022-12-11T12:24:05.502Z,93.58
2022-12-11T12:26:39.018Z,93.45
2022-12-11T12:29:05.639Z,93.44
2022-12-11T12:32:09.584Z,93.51
2022-12-11T12:34:52.910Z,93.43
2022-12-11T12:37:46.529Z,93.52
2022-12-11T12:41:00.934Z,93.75
2022-12-11T12:44:05.207Z,93.58
2022-12-11T12:46:43.702Z,93.47
2022-12-11T12:49:17.448Z,93.68
2022-12-11T12:51:44.999Z,93.40
2022-12-11T12:54:17.329Z,93.53
2022-12-11T12:56:46.938Z,93.32
2022-12-11T12:59:22.405Z,93.38
2022-12-11T13:01:57.086Z,93.42
2022-12-11T13:04:58.293Z,93.11
2022-12-11T13:07:30.882Z,93.57
2022-12-11T13:10:04.578Z,93.04
2022-12-11T13:12:54.977Z,93.18
2022-12-11T13:15:27.517Z,92.94
2022-12-11T13:17:54.271Z,93.00
2022-12-11T13:20:23.716Z,92.83
2022-12-11T13:23:08.764Z,92.86
2022-12-11T13:25:52.732Z,93.04
2022-12-11T13:28:48.149Z,93.19
2022-12-11T13:31:14.597Z,93.21
2022-12-11T13:33:49.891Z,92.96
2022-12-11T13:36:53.149Z,93.02
2022-12-11T13:39:23.892Z,92.88
2022-12-11T13:42:11.866Z,92.96
2022-12-11T13:44:42.405Z,93.00
2022-12-11T13:47:15.486Z,93.01
2022-12-11T13:49:44.178Z,93.25
2022-12-11T13:52:22.892Z,93.39
2022-12-11T13:54:52.701Z,93.14
2022-12-11T13:57:25.707Z,93.33
2022-12-11T13:59:54.322Z,93.52
2022-12-11T14:02:31.887Z,93.14
2022-12-11T14:05:02.306Z,93.23
2022-12-11T14:07:32.927Z,93.50
2022-12-11T14:10:03.808Z,93.19
2022-12-11T14:12:31.127Z,93.48
2022-12-11T14:15:01.911Z,93.57
2022-12-11T14:17:31.756Z,93.58
2022-12-11T14:20:00.675Z,93.84
2022-12-11T14:22:29.751Z,93.84
2022-12-11T14:24:59.139Z,93.61
2022-12-11T14:27:27.629Z,93.82
2022-12-11T14:29:54.683Z,93.55
2022-12-11T14:32:44.870Z,93.57
2022-12-11T14:35:24.321Z,93.65
2022-12-11T14:37:52.380Z,93.68
2022-12-11T14:40:22.962Z,93.45
2022-12-11T14:43:01.158Z,93.61
2022-12-11T14:45:36.944Z,93.61
2022-12-11T14:48:20.202Z,93.75
2022-12-11T14:50:53.623Z,93.84
2022-12-11T14:53:35.624Z,93.70
2022-12-11T14:56:06.401Z,93.64
2022-12-11T14:58:37.868Z,93.64
2022-12-11T15:01:06.911Z,93.54
2022-12-11T15:03:38.527Z,93.67
2022-12-11T15:06:30.550Z,93.89
2022-12-11T15:08:57.018Z,93.82
2022-12-11T15:11:30.442Z,93.91
2022-12-11T15:13:59.681Z,93.53
2022-12-11T15:16:29.336Z,93.81
2022-12-11T15:18:56.730Z,94.00
2022-12-11T15:21:32.347Z,93.79
2022-12-11T15:24:01.470Z,93.97
2022-12-11T15:26:44.013Z,93.79
2022-12-11T15:29:39.711Z,93.73
2022-12-11T15:32:09.195Z,93.78
2022-12-11T15:34:50.726Z,93.83
2022-12-11T15:37:38.446Z,93.95
2022-12-11T15:40:05.400Z,94.01
2022-12-11T15:42:36.575Z,93.94
2022-12-11T15:45:05.391Z,94.14
2022-12-11T15:47:32.637Z,93.83
2022-12-11T15:50:02.018Z,93.89
2022-12-11T15:52:28.673Z,93.95
2022-12-11T15:54:55.153Z,94.17
2022-12-11T15:57:23.982Z,93.93
2022-12-11T15:59:53.074Z,93.99
2022-12-11T16:02:19.627Z,93.92
2022-12-11T16:04:46.215Z,94.00
2022-12-11T16:07:22.175Z,94.21
2022-12-11T16:09:49.061Z,94.24
2022-12-11T16:12:16.255Z,94.17
2022-12-11T16:14:44.645Z,94.07
2022-12-11T16:17:13.125Z,94.04
2022-12-11T16:19:41.127Z,94.03
2022-12-11T16:22:09.137Z,94.17
2022-12-11T16:24:36.191Z,94.33
2022-12-11T16:27:03.650Z,94.22
2022-12-11T16:29:35.166Z,94.09
2022-12-11T16:32:01.644Z,94.13
2022-12-11T16:34:28.847Z,94.14
2022-12-11T16:36:57.995Z,94.08
2022-12-11T16:39:24.961Z,93.93
2022-12-11T16:41:51.507Z,93.89
2022-12-11T16:44:24.608Z,94.31
2022-12-11T16:46:51.330Z,93.75
2022-12-11T16:49:18.266Z,93.77
2022-12-11T16:51:44.790Z,93.84
2022-12-11T16:54:11.944Z,93.73
2022-12-11T16:56:38.932Z,93.75
2022-12-11T16:59:05.507Z,93.76
2022-12-11T17:01:32.243Z,93.83
2022-12-11T17:03:59.291Z,93.67
2022-12-11T17:06:25.878Z,93.80
2022-12-11T17:08:52.611Z,93.70
2022-12-11T17:11:22.188Z,93.65
2022-12-11T17:13:54.679Z,93.89
2022-12-11T17:16:22.420Z,93.68
2022-12-11T17:18:49.029Z,93.43
2022-12-11T17:21:18.163Z,93.34
2022-12-11T17:23:45.005Z,93.46
2022-12-11T17:26:11.980Z,93.23
2022-12-11T17:28:39.964Z,93.37
2022-12-11T17:31:16.491Z,93.37
2022-12-11T17:33:46.779Z,93.64
2022-12-11T17:36:20.091Z,93.42
2022-12-11T17:38:49.447Z,93.32
2022-12-11T17:41:20.534Z,93.41
2022-12-11T17:43:48.924Z,93.64
2022-12-11T17:46:18.307Z,93.30
2022-12-11T17:48:45.175Z,93.47
2022-12-11T17:51:13.830Z,93.66
2022-12-11T17:53:40.496Z,93.50
2022-12-11T17:56:08.445Z,93.81
2022-12-11T17:58:35.475Z,93.91
2022-12-11T18:01:07.200Z,93.92
2022-12-11T18:03:33.665Z,93.84
2022-12-11T18:06:05.097Z,94.16
2022-12-11T18:08:32.040Z,93.96
2022-12-11T18:11:09.374Z,94.38
2022-12-11T18:13:36.224Z,93.87
2022-12-11T18:16:10.615Z,94.13
2022-12-11T18:18:38.485Z,94.18
2022-12-11T18:21:05.343Z,93.97
2022-12-11T18:23:32.168Z,94.13
2022-12-11T18:25:58.631Z,94.18
2022-12-11T18:28:25.327Z,93.90
2022-12-11T18:30:51.870Z,93.51
2022-12-11T18:33:18.376Z,93.38
2022-12-11T18:35:44.878Z,93.24
2022-12-11T18:38:12.175Z,92.62
2022-12-11T18:40:38.806Z,92.62
2022-12-11T18:43:05.226Z,92.58
2022-12-11T18:45:31.955Z,92.46
2022-12-11T18:47:58.811Z,92.64
2022-12-11T18:50:25.379Z,92.39
2022-12-11T18:52:55.710Z,92.11
2022-12-11T18:55:22.309Z,92.16
2022-12-11T18:57:48.880Z,92.15
2022-12-11T19:00:16.787Z,91.85
2022-12-11T19:02:46.246Z,91.68
2022-12-11T19:05:13.028Z,91.12
2022-12-11T19:07:39.900Z,91.37
2022-12-11T19:10:06.952Z,90.79
2022-12-11T19:12:34.166Z,91.03
2022-12-11T19:15:00.616Z,90.69
2022-12-11T19:17:27.386Z,90.50
2022-12-11T19:19:54.007Z,90.53
2022-12-11T19:22:20.432Z,90.51
2022-12-11T19:24:46.916Z,90.73
2022-12-11T19:27:14.074Z,90.24
2022-12-11T19:29:41.282Z,90.07
2022-12-11T19:32:07.694Z,89.90
2022-12-11T19:34:34.200Z,90.07
2022-12-11T19:37:00.632Z,89.70
2022-12-11T19:39:27.176Z,89.69
2022-12-11T19:41:53.654Z,89.56
2022-12-11T19:44:20.159Z,89.64
2022-12-11T19:46:46.803Z,89.22
2022-12-11T19:49:13.357Z,89.42
2022-12-11T19:51:41.579Z,89.16
2022-12-11T19:54:11.608Z,89.34
2022-12-11T19:56:41.109Z,89.02
2022-12-11T19:59:11.568Z,89.21
2022-12-11T20:01:38.533Z,88.99
2022-12-11T20:04:08.327Z,88.92
2022-12-11T20:06:36.321Z,88.87
2022-12-11T20:09:05.308Z,88.68
2022-12-11T20:11:33.003Z,88.88
2022-12-11T20:13:59.989Z,88.89
2022-12-11T20:16:46.223Z,88.48
2022-12-11T20:19:13.086Z,88.73
2022-12-11T20:21:39.563Z,88.81
2022-12-11T20:24:06.278Z,88.65
2022-12-11T20:26:35.917Z,89.05
2022-12-11T20:29:05.293Z,88.84
2022-12-11T20:31:33.059Z,88.70
2022-12-11T20:33:59.633Z,88.75
2022-12-11T20:36:27.222Z,89.05
2022-12-11T20:38:53.809Z,88.75
2022-12-11T20:41:22.885Z,88.93
2022-12-11T20:43:49.782Z,88.53
2022-12-11T20:46:18.441Z,88.97
2022-12-11T20:48:45.738Z,88.84
2022-12-11T20:51:14.285Z,89.41
2022-12-11T20:53:41.561Z,89.15
2022-12-11T20:56:14.156Z,89.47
2022-12-11T20:58:41.186Z,89.30
2022-12-11T21:01:12.890Z,89.13
2022-12-11T21:03:42.181Z,89.08
2022-12-11T21:06:17.360Z,89.25
2022-12-11T21:08:43.937Z,89.35
2022-12-11T21:11:10.523Z,89.26
2022-12-11T21:13:37.323Z,89.16
2022-12-11T21:16:08.085Z,89.05
2022-12-11T21:18:34.733Z,89.09
2022-12-11T21:21:01.223Z,89.06
2022-12-11T21:23:27.689Z,89.02
2022-12-11T21:25:54.324Z,88.77
2022-12-11T21:28:21.987Z,88.50
2022-12-11T21:30:54.788Z,88.69
2022-12-11T21:33:21.244Z,88.38
2022-12-11T21:35:56.276Z,88.84
2022-12-11T21:38:23.236Z,88.56
2022-12-11T21:40:50.883Z,88.58
2022-12-11T21:43:17.364Z,88.99
2022-12-11T21:46:01.406Z,88.81
2022-12-11T21:48:29.033Z,88.98
2022-12-11T21:51:37.730Z,89.00
2022-12-11T21:54:06.745Z,88.89
2022-12-11T21:56:33.626Z,89.09
2022-12-11T21:59:01.701Z,88.84
2022-12-11T22:01:33.292Z,89.10
2022-12-11T22:03:59.856Z,88.83
2022-12-11T22:06:26.643Z,89.20
2022-12-11T22:08:53.361Z,89.02
2022-12-11T22:11:22.835Z,89.09
2022-12-11T22:13:49.867Z,89.43
2022-12-11T22:16:16.457Z,89.24
2022-12-11T22:18:43.587Z,89.32
2022-12-11T22:21:10.336Z,89.30
2022-12-11T22:23:40.914Z,89.42
2022-12-11T22:26:08.758Z,89.70
2022-12-11T22:28:35.501Z,89.43
2022-12-11T22:31:02.046Z,89.47
2022-12-11T22:33:28.537Z,89.57
2022-12-11T22:35:58.523Z,89.85
2022-12-11T22:38:25.711Z,89.88
2022-12-11T22:40:53.280Z,90.01
2022-12-11T22:43:20.196Z,90.17
2022-12-11T22:45:46.724Z,90.46
2022-12-11T22:48:13.251Z,90.31
2022-12-11T22:50:40.044Z,90.31
2022-12-11T22:53:07.742Z,90.45
2022-12-11T22:55:34.566Z,90.37
2022-12-11T22:58:01.088Z,90.62
2022-12-11T23:00:27.545Z,90.69
2022-12-11T23:02:54.078Z,90.76
2022-12-11T23:05:20.645Z,90.75
2022-12-11T23:07:47.331Z,90.81
2022-12-11T23:10:13.887Z,91.07
2022-12-11T23:12:40.544Z,91.32
2022-12-11T23:15:07.963Z,91.15
2022-12-11T23:17:34.604Z,91.28
2022-12-11T23:20:03.644Z,91.29
2022-12-11T23:22:30.568Z,91.24
2022-12-11T23:24:57.014Z,91.58
2022-12-11T23:27:23.792Z,91.40
2022-12-11T23:29:50.215Z,91.50
2022-12-11T23:32:16.655Z,91.51
2022-12-11T23:34:43.156Z,91.37
2022-12-11T23:37:10.158Z,91.52
2022-12-11T23:39:36.656Z,91.45
2022-12-11T23:42:03.169Z,91.76
2022-12-11T23:44:29.619Z,91.61
2022-12-11T23:46:56.048Z,91.35
2022-12-11T23:49:22.524Z,91.55
2022-12-11T23:51:48.994Z,91.24
2022-12-11T23:54:15.428Z,91.26
2022-12-11T23:56:41.972Z,91.15
2022-12-11T23:59:13.075Z,91.42
